Airfield :
LOGIN :

Register | Disclaimer

   EN    FR    IT 

 










Legend :    VFR   Marginal VFR   IFR   Intensive IFR   Very Intensive IFR
Visi :
Ceiling :
>= 8 km
>= 3000ft
5 to 8 km
1000 to 3000 ft
1500m to 5 km
500 to 1000 ft
800 to 1500m
200 to 500 ft
< 800m
< 200 ft
Symbols :   Thunderstorms  Fog  Heavy snow  Heavy precipitations  Wind > 20 kt
SIGMETs :     Misc.  Thunderstorms  Icing  Turbulence  Mountain Waves  Volcanic Ashes






- Airport Elevation : 1989 ft
- IATA code : KLV


LKKV - Karlovy Vary

CURRENT METAR :
  • 291813Z 26011KT 220V280 9999 -SHSN SCT009 BKN015 00/M01 Q1008 R29/////// RMK REG QNH 1005

EXPIRED METARs :
  • 291800Z 26011KT 230V290 9999 SCT009 BKN015 00/M01 Q1008 R29///////
  • 291730Z 26010KT 230V290 9999 SCT009 BKN015 00/M01 Q1007 R29///////
  • 291700Z 26010KT 220V290 9999 SCT008 BKN020 00/M01 Q1007 R29///////
  • 291630Z 26008KT 220V290 9999 SCT013 01/M02 Q1006 R29///////
  • 291600Z 26011KT 220V280 9999 SCT018 01/M02 Q1006 R29///////
  • 291537Z 26010KT 230V290 9999 SCT020 BKN045 01/M02 Q1006 R29/////// RMK REG QNH 1004

TAF TAF LKKV
Valid from the 29 at 18:00 until the 31 at 00:00 UTC


291700Z 2918/3100 25010KT 9999 SCT023
TEMPO 2918/3100 26012G28KT 2500 SHSN BKN009
PROB30
TEMPO 2918/3012 2000 SHSN BKN005



MET'MAP, your aeronautical weather chart ! - Copyright ORBIFLY December 2007 - Disclaimer

ORBIFLY MET'MAP TEAM :

Programming & Development : Alexandra Zaïnal
Concept & original design : Baudouin d'Aumeries
Assistance for programming : Marc-Olivier Méhu
Technical & hardware support : Manuel Goepfert

Contact : metmap@orbifly.com




SOURCES & CREDITS :

   NOAA